Time;durP1;ratioP1;P1;durP2;ratioP2;P2;SDS_P1;SDS_P2;PMS_P1;PMS_P2;Temp;Humidity;BMP_temperature;BMP_pressure;BME280_temperature;BME280_humidity;BME280_pressure;Samples;Min_cycle;Max_cycle;Signal;HPM_P1;HPM_P2
2022/11/29 00:00:57;;;;;;;34.90;19.20;;;;;;;;;;5017397;28;20224;-48
2022/11/29 00:03:24;;;;;;;31.90;15.00;;;;;;;;;;5017325;28;20658;-48
2022/11/29 00:05:52;;;;;;;31.67;16.80;;;;;;;;;;5017631;28;20216;-48
2022/11/29 00:08:20;;;;;;;35.23;15.50;;;;;;;;;;5016922;28;20201;-47
2022/11/29 00:10:47;;;;;;;30.13;14.63;;;;;;;;;;5016772;28;20201;-53
2022/11/29 00:13:14;;;;;;;32.53;15.50;;;;;;;;;;5017274;28;20209;-47
2022/11/29 00:15:41;;;;;;;37.90;16.73;;;;;;;;;;5016925;28;20212;-50
2022/11/29 00:18:08;;;;;;;36.03;15.23;;;;;;;;;;5017155;28;20197;-48
2022/11/29 00:20:38;;;;;;;37.23;16.07;;;;;;;;;;5016759;28;20256;-46
2022/11/29 00:23:05;;;;;;;25.87;14.03;;;;;;;;;;5017112;28;20241;-47
2022/11/29 00:25:32;;;;;;;28.97;14.33;;;;;;;;;;5017013;28;20248;-47
2022/11/29 00:27:58;;;;;;;28.20;14.63;;;;;;;;;;5016960;28;20197;-47
2022/11/29 00:30:26;;;;;;;28.83;15.47;;;;;;;;;;5015828;28;20209;-48
2022/11/29 00:32:53;;;;;;;33.17;18.07;;;;;;;;;;5017481;28;20212;-47
2022/11/29 00:35:20;;;;;;;31.03;15.40;;;;;;;;;;5016941;28;20205;-47
2022/11/29 00:37:47;;;;;;;31.50;15.10;;;;;;;;;;5016934;28;20271;-47
2022/11/29 00:40:14;;;;;;;23.87;14.43;;;;;;;;;;5016654;28;20205;-47
2022/11/29 00:42:41;;;;;;;29.23;13.80;;;;;;;;;;5016670;28;20293;-47
2022/11/29 00:45:08;;;;;;;23.30;14.23;;;;;;;;;;5016385;28;20232;-46
2022/11/29 00:47:35;;;;;;;27.27;14.40;;;;;;;;;;5016583;28;20209;-47
2022/11/29 00:50:03;;;;;;;26.57;15.30;;;;;;;;;;5016426;28;20205;-46
2022/11/29 00:52:30;;;;;;;29.83;16.13;;;;;;;;;;5016431;28;20205;-47
2022/11/29 00:54:58;;;;;;;32.47;15.37;;;;;;;;;;5016435;28;20202;-47
2022/11/29 00:57:24;;;;;;;39.47;20.73;;;;;;;;;;5016360;28;20201;-48
2022/11/29 00:59:51;;;;;;;29.80;15.03;;;;;;;;;;5016159;28;20205;-47
2022/11/29 01:02:18;;;;;;;34.00;16.80;;;;;;;;;;5016364;28;20209;-46
2022/11/29 01:04:45;;;;;;;29.40;15.17;;;;;;;;;;5016073;28;20233;-48
2022/11/29 01:07:13;;;;;;;29.93;15.50;;;;;;;;;;5016278;28;20205;-47
2022/11/29 01:09:40;;;;;;;29.53;15.07;;;;;;;;;;5016189;28;20213;-47
2022/11/29 01:12:07;;;;;;;30.93;15.43;;;;;;;;;;5016155;28;20229;-48
2022/11/29 01:14:34;;;;;;;31.47;14.93;;;;;;;;;;5016182;28;20214;-48
2022/11/29 01:17:01;;;;;;;31.20;15.23;;;;;;;;;;5016384;28;20201;-48
2022/11/29 01:19:28;;;;;;;28.47;14.93;;;;;;;;;;5015148;28;20267;-46
2022/11/29 01:21:55;;;;;;;33.03;15.40;;;;;;;;;;5016349;28;20233;-46
2022/11/29 01:24:22;;;;;;;38.53;23.67;;;;;;;;;;5015780;28;20650;-47
2022/11/29 01:26:49;;;;;;;32.90;15.97;;;;;;;;;;5015637;28;20217;-47
2022/11/29 01:29:16;;;;;;;31.17;15.67;;;;;;;;;;5015939;28;20210;-47
2022/11/29 01:31:43;;;;;;;29.63;16.13;;;;;;;;;;5015716;28;20293;-47
2022/11/29 01:34:10;;;;;;;34.97;16.83;;;;;;;;;;5015493;28;20602;-47
2022/11/29 01:36:36;;;;;;;37.07;16.73;;;;;;;;;;5015951;28;20208;-47
2022/11/29 01:39:05;;;;;;;31.87;16.63;;;;;;;;;;5015658;28;20244;-47
2022/11/29 01:41:34;;;;;;;29.43;15.97;;;;;;;;;;5015736;28;20508;-46
2022/11/29 01:44:04;;;;;;;31.67;16.70;;;;;;;;;;5015535;28;20240;-47
2022/11/29 01:46:42;;;;;;;31.77;15.43;;;;;;;;;;5015330;28;20206;-50
2022/11/29 01:49:19;;;;;;;29.23;15.83;;;;;;;;;;5016526;28;20197;-48
2022/11/29 01:52:17;;;;;;;32.30;16.00;;;;;;;;;;5015328;28;20189;-47
2022/11/29 01:54:47;;;;;;;31.67;17.73;;;;;;;;;;5014932;28;20201;-46
2022/11/29 01:57:15;;;;;;;28.70;15.37;;;;;;;;;;5014777;28;20201;-47
2022/11/29 01:59:48;;;;;;;32.33;16.20;;;;;;;;;;5015497;28;20228;-49
2022/11/29 02:02:19;;;;;;;26.07;14.67;;;;;;;;;;5014728;28;20227;-49
2022/11/29 02:04:47;;;;;;;31.03;15.13;;;;;;;;;;5015561;28;20229;-47
2022/11/29 02:07:14;;;;;;;34.37;15.37;;;;;;;;;;5030605;28;20202;-48
2022/11/29 02:09:41;;;;;;;33.40;16.57;;;;;;;;;;5015011;28;20212;-47
2022/11/29 02:12:25;;;;;;;31.57;16.47;;;;;;;;;;5014992;28;20567;-47
2022/11/29 02:15:07;;;;;;;31.43;16.40;;;;;;;;;;5015039;28;20504;-48
2022/11/29 02:17:45;;;;;;;32.73;16.40;;;;;;;;;;5015342;28;20288;-47
2022/11/29 02:20:41;;;;;;;33.53;19.03;;;;;;;;;;5030569;28;20626;-47
2022/11/29 02:23:32;;;;;;;31.60;17.70;;;;;;;;;;5030439;28;20196;-46
2022/11/29 02:25:59;;;;;;;30.23;15.17;;;;;;;;;;5014447;28;20213;-47
2022/11/29 02:28:47;;;;;;;32.30;16.97;;;;;;;;;;5015208;28;20228;-47
2022/11/29 02:31:28;;;;;;;32.30;16.90;;;;;;;;;;5031993;28;20193;-46
2022/11/29 02:34:09;;;;;;;36.97;17.37;;;;;;;;;;5019386;28;20263;-46
2022/11/29 02:36:50;;;;;;;30.73;16.37;;;;;;;;;;5019450;28;20512;-49
2022/11/29 02:39:32;;;;;;;32.23;16.40;;;;;;;;;;5018184;28;20237;-48
2022/11/29 02:42:21;;;;;;;34.03;16.43;;;;;;;;;;5019564;28;20228;-48
2022/11/29 02:45:10;;;;;;;30.83;16.07;;;;;;;;;;5034310;28;20267;-47
2022/11/29 02:48:04;;;;;;;28.07;16.43;;;;;;;;;;5034250;28;20202;-49
2022/11/29 02:50:43;;;;;;;30.57;17.40;;;;;;;;;;5019044;28;20202;-46
2022/11/29 02:53:17;;;;;;;36.27;18.87;;;;;;;;;;5019205;28;20197;-47
2022/11/29 02:55:54;;;;;;;36.20;17.40;;;;;;;;;;5017959;28;20209;-46
2022/11/29 02:58:30;;;;;;;44.33;19.40;;;;;;;;;;5034103;28;20217;-47
2022/11/29 03:01:11;;;;;;;40.67;18.17;;;;;;;;;;5034186;28;20201;-47
2022/11/29 03:03:47;;;;;;;31.83;16.70;;;;;;;;;;5017869;28;20202;-48
2022/11/29 03:06:20;;;;;;;38.10;18.10;;;;;;;;;;5017680;28;20294;-46
2022/11/29 03:09:01;;;;;;;42.20;19.67;;;;;;;;;;5034238;28;20186;-48
2022/11/29 03:11:45;;;;;;;39.30;17.97;;;;;;;;;;5017382;28;20650;-46
2022/11/29 03:14:22;;;;;;;36.33;16.83;;;;;;;;;;5033822;28;20209;-47
2022/11/29 03:17:02;;;;;;;38.67;23.30;;;;;;;;;;5033821;28;20205;-46
2022/11/29 03:20:07;;;;;;;49.10;26.37;;;;;;;;;;5018413;28;20193;-47
2022/11/29 03:22:48;;;;;;;40.43;20.00;;;;;;;;;;5010300;28;20229;-47
2022/11/29 03:25:21;;;;;;;51.23;20.63;;;;;;;;;;5033303;28;20661;-47
2022/11/29 03:28:18;;;;;;;36.63;17.63;;;;;;;;;;5034087;28;20215;-47
2022/11/29 03:30:56;;;;;;;37.07;17.67;;;;;;;;;;5011678;28;20197;-47
2022/11/29 03:33:28;;;;;;;26.37;15.60;;;;;;;;;;5017902;28;20225;-48
2022/11/29 03:36:00;;;;;;;34.40;16.27;;;;;;;;;;5018268;28;20216;-46
2022/11/29 03:38:34;;;;;;;37.30;18.23;;;;;;;;;;5017976;28;20693;-47
2022/11/29 03:41:19;;;;;;;34.77;17.43;;;;;;;;;;5017093;28;20205;-46
2022/11/29 03:44:13;;;;;;;90.03;43.30;;;;;;;;;;5032643;28;20519;-46
2022/11/29 03:47:03;;;;;;;28.50;14.77;;;;;;;;;;5017564;28;20218;-46
2022/11/29 03:49:42;;;;;;;34.93;16.77;;;;;;;;;;5017082;28;20542;-49
2022/11/29 03:52:31;;;;;;;48.43;20.87;;;;;;;;;;5017787;28;20212;-51
2022/11/29 03:55:07;;;;;;;56.97;22.30;;;;;;;;;;5033367;28;20193;-46
2022/11/29 03:58:16;;;;;;;48.57;20.13;;;;;;;;;;5018047;28;20189;-47
2022/11/29 04:00:49;;;;;;;45.53;19.43;;;;;;;;;;5017484;28;20307;-46
2022/11/29 04:03:49;;;;;;;48.00;20.43;;;;;;;;;;5017321;28;20209;-47
2022/11/29 04:06:23;;;;;;;35.80;16.97;;;;;;;;;;5017115;28;20279;-47
2022/11/29 04:09:06;;;;;;;37.17;17.40;;;;;;;;;;5017543;28;20576;-47
2022/11/29 04:11:53;;;;;;;90.77;41.50;;;;;;;;;;5018228;28;20292;-46
2022/11/29 04:14:24;;;;;;;32.27;18.90;;;;;;;;;;5017718;28;20232;-47
2022/11/29 04:17:18;;;;;;;36.63;19.63;;;;;;;;;;5016920;28;20206;-47
2022/11/29 04:20:23;;;;;;;70.33;25.87;;;;;;;;;;5033337;28;20205;-47
2022/11/29 04:23:02;;;;;;;39.97;17.53;;;;;;;;;;5017430;28;20229;-47
2022/11/29 04:25:32;;;;;;;38.23;16.30;;;;;;;;;;5016759;28;20217;-47
2022/11/29 04:28:22;;;;;;;32.60;15.87;;;;;;;;;;5017537;28;20486;-48
2022/11/29 04:31:13;;;;;;;29.20;15.17;;;;;;;;;;5030745;28;20205;-50
2022/11/29 04:34:02;;;;;;;27.47;14.23;;;;;;;;;;5034064;28;20657;-51
2022/11/29 04:36:47;;;;;;;34.57;16.63;;;;;;;;;;5036286;28;20562;-46
2022/11/29 04:39:37;;;;;;;45.83;18.67;;;;;;;;;;5035215;28;20200;-53
2022/11/29 04:42:28;;;;;;;40.10;28.50;;;;;;;;;;5029345;28;20212;-51
2022/11/29 04:45:30;;;;;;;44.03;21.77;;;;;;;;;;5035064;28;20217;-48
2022/11/29 04:48:09;;;;;;;82.00;24.77;;;;;;;;;;5034945;28;20207;-48
2022/11/29 04:51:00;;;;;;;60.87;22.07;;;;;;;;;;5033685;28;20667;-49
2022/11/29 04:53:27;;;;;;;41.90;18.17;;;;;;;;;;5035574;28;20208;-55
2022/11/29 04:56:12;;;;;;;39.80;16.90;;;;;;;;;;5034835;28;20288;-46
2022/11/29 04:58:46;;;;;;;28.50;15.27;;;;;;;;;;5027857;28;20633;-47
2022/11/29 05:01:30;;;;;;;28.30;15.10;;;;;;;;;;5034984;28;20201;-47
2022/11/29 05:04:02;;;;;;;28.00;14.00;;;;;;;;;;5047791;28;20538;-47
2022/11/29 05:06:37;;;;;;;38.20;16.13;;;;;;;;;;5034743;28;20278;-46
2022/11/29 05:09:30;;;;;;;64.47;30.77;;;;;;;;;;5035388;28;20211;-46
2022/11/29 05:12:04;;;;;;;29.50;17.13;;;;;;;;;;5024534;28;20230;-48
2022/11/29 05:14:49;;;;;;;29.20;15.43;;;;;;;;;;5010327;28;20220;-48
2022/11/29 05:17:30;;;;;;;31.00;15.37;;;;;;;;;;5048869;28;20318;-49
2022/11/29 05:20:33;;;;;;;38.83;16.13;;;;;;;;;;5034697;28;20243;-47
2022/11/29 05:23:15;;;;;;;34.70;16.27;;;;;;;;;;5029848;28;20219;-49
2022/11/29 05:26:06;;;;;;;25.73;13.93;;;;;;;;;;5033322;28;20578;-47
2022/11/29 05:28:45;;;;;;;28.40;13.60;;;;;;;;;;5034500;28;20234;-49
2022/11/29 05:31:24;;;;;;;22.27;12.50;;;;;;;;;;5034903;28;20228;-47
2022/11/29 05:34:16;;;;;;;24.03;13.00;;;;;;;;;;5034374;28;20216;-47
2022/11/29 05:36:58;;;;;;;25.63;18.07;;;;;;;;;;5034150;28;20537;-47
2022/11/29 05:39:37;;;;;;;28.07;14.63;;;;;;;;;;5034671;28;20232;-49
2022/11/29 05:42:25;;;;;;;29.03;15.00;;;;;;;;;;5033448;28;20216;-48
2022/11/29 05:45:13;;;;;;;37.20;14.50;;;;;;;;;;5033079;28;20871;-46
2022/11/29 05:47:47;;;;;;;35.07;15.70;;;;;;;;;;5033316;28;20249;-46
2022/11/29 05:50:23;;;;;;;27.37;12.90;;;;;;;;;;5033330;28;20219;-47
2022/11/29 05:53:10;;;;;;;28.80;13.77;;;;;;;;;;5032739;28;20607;-47
2022/11/29 05:55:52;;;;;;;23.27;12.47;;;;;;;;;;5032534;28;20243;-46
2022/11/29 05:58:50;;;;;;;26.73;12.23;;;;;;;;;;5025075;28;20232;-48
2022/11/29 06:01:24;;;;;;;26.07;12.53;;;;;;;;;;5030316;28;20228;-48
2022/11/29 06:04:17;;;;;;;32.90;21.47;;;;;;;;;;5032526;28;20591;-48
2022/11/29 06:06:57;;;;;;;21.40;11.47;;;;;;;;;;5032391;28;20232;-46
2022/11/29 06:09:32;;;;;;;22.00;11.83;;;;;;;;;;5033046;28;20228;-46
2022/11/29 06:12:14;;;;;;;34.63;14.87;;;;;;;;;;5032684;28;20737;-46
2022/11/29 06:15:24;;;;;;;21.50;11.47;;;;;;;;;;5033081;28;20263;-46
2022/11/29 06:18:17;;;;;;;29.40;12.57;;;;;;;;;;5032931;28;20238;-46
2022/11/29 06:21:01;;;;;;;27.40;12.87;;;;;;;;;;5033277;28;20223;-46
2022/11/29 06:24:11;;;;;;;24.87;11.87;;;;;;;;;;5032626;28;20675;-48
2022/11/29 06:27:10;;;;;;;27.47;11.93;;;;;;;;;;5034646;28;20235;-48
2022/11/29 06:30:00;;;;;;;28.70;11.90;;;;;;;;;;5034131;28;20521;-48
2022/11/29 06:32:39;;;;;;;23.43;16.27;;;;;;;;;;5031350;28;20725;-49
2022/11/29 06:35:40;;;;;;;22.60;11.93;;;;;;;;;;5033897;28;20207;-46
2022/11/29 06:38:17;;;;;;;23.77;11.73;;;;;;;;;;5032176;28;20538;-46
2022/11/29 06:40:44;;;;;;;29.33;12.73;;;;;;;;;;5033884;28;20200;-46
2022/11/29 06:43:11;;;;;;;25.80;12.73;;;;;;;;;;5034628;28;20263;-48
2022/11/29 06:45:39;;;;;;;28.47;12.17;;;;;;;;;;5034966;28;20228;-46
2022/11/29 06:48:08;;;;;;;26.13;12.80;;;;;;;;;;5034957;28;20208;-46
2022/11/29 06:50:49;;;;;;;24.37;12.30;;;;;;;;;;5033669;28;20528;-46
2022/11/29 06:53:40;;;;;;;27.90;12.77;;;;;;;;;;5034018;28;20228;-46
2022/11/29 06:56:37;;;;;;;23.93;11.93;;;;;;;;;;5033966;28;20255;-46
2022/11/29 06:59:46;;;;;;;43.23;22.60;;;;;;;;;;5034137;28;20205;-46
2022/11/29 07:02:23;;;;;;;191.63;92.47;;;;;;;;;;5030573;28;20603;-47
2022/11/29 07:05:20;;;;;;;207.07;95.33;;;;;;;;;;5034150;28;20208;-47
2022/11/29 07:07:48;;;;;;;78.27;37.93;;;;;;;;;;5033919;28;20201;-48
2022/11/29 07:10:16;;;;;;;49.07;22.87;;;;;;;;;;5034280;28;20539;-46
2022/11/29 07:12:44;;;;;;;39.13;19.90;;;;;;;;;;5034116;28;20315;-48
2022/11/29 07:15:14;;;;;;;33.13;20.60;;;;;;;;;;5034482;28;20197;-47
2022/11/29 07:18:01;;;;;;;33.33;18.57;;;;;;;;;;5034917;28;20204;-46
2022/11/29 07:20:40;;;;;;;33.67;16.30;;;;;;;;;;5033993;28;20204;-46
2022/11/29 07:23:34;;;;;;;25.30;14.20;;;;;;;;;;5038006;28;20200;-46
2022/11/29 07:26:08;;;;;;;63.17;32.23;;;;;;;;;;5038301;28;20228;-47
2022/11/29 07:28:59;;;;;;;341.40;148.60;;;;;;;;;;5037943;28;20633;-46
2022/11/29 07:31:51;;;;;;;398.47;170.30;;;;;;;;;;5037967;28;20200;-46
2022/11/29 07:34:42;;;;;;;695.17;334.03;;;;;;;;;;5037969;28;20189;-46
2022/11/29 07:37:19;;;;;;;428.30;169.60;;;;;;;;;;5036632;28;20213;-48
2022/11/29 07:39:58;;;;;;;336.77;126.03;;;;;;;;;;5036848;28;20292;-48
2022/11/29 07:42:34;;;;;;;530.87;215.33;;;;;;;;;;5036880;28;20532;-50
2022/11/29 07:45:08;;;;;;;434.30;161.60;;;;;;;;;;5028666;28;20230;-46
2022/11/29 07:47:35;;;;;;;365.00;135.00;;;;;;;;;;5036401;28;20216;-48
2022/11/29 07:50:03;;;;;;;146.53;60.30;;;;;;;;;;5035957;28;20235;-49
2022/11/29 07:52:30;;;;;;;203.87;84.60;;;;;;;;;;5036388;28;20221;-47
2022/11/29 07:54:57;;;;;;;262.60;113.17;;;;;;;;;;5035712;28;20236;-46
2022/11/29 07:57:24;;;;;;;204.63;92.40;;;;;;;;;;5036237;28;20220;-48
2022/11/29 07:59:51;;;;;;;79.77;41.03;;;;;;;;;;5026205;28;20241;-46
2022/11/29 08:02:28;;;;;;;185.30;83.27;;;;;;;;;;5016428;28;20237;-46
2022/11/29 08:04:55;;;;;;;227.33;107.03;;;;;;;;;;5016523;28;20221;-47
2022/11/29 08:07:23;;;;;;;114.37;51.83;;;;;;;;;;5016712;28;20300;-46
2022/11/29 08:09:50;;;;;;;170.40;70.80;;;;;;;;;;5016150;28;20304;-47
2022/11/29 08:12:17;;;;;;;223.13;87.23;;;;;;;;;;5016616;28;20229;-45
2022/11/29 08:14:44;;;;;;;269.63;115.37;;;;;;;;;;5015610;28;20299;-46
2022/11/29 08:17:11;;;;;;;182.60;75.80;;;;;;;;;;5016217;28;20221;-46
2022/11/29 08:19:38;;;;;;;131.60;65.27;;;;;;;;;;5016516;28;20301;-46
2022/11/29 08:22:05;;;;;;;107.63;57.93;;;;;;;;;;5016070;28;20242;-51
2022/11/29 08:24:32;;;;;;;108.23;58.93;;;;;;;;;;5016247;28;20532;-49
2022/11/29 08:26:59;;;;;;;59.23;34.33;;;;;;;;;;5015813;28;20233;-46
2022/11/29 08:29:26;;;;;;;62.43;38.43;;;;;;;;;;5021603;28;20228;-46
2022/11/29 08:31:53;;;;;;;42.10;25.87;;;;;;;;;;5035629;28;20294;-49
2022/11/29 08:34:22;;;;;;;69.40;41.33;;;;;;;;;;5035885;28;20252;-46
2022/11/29 08:36:50;;;;;;;41.77;24.57;;;;;;;;;;5035193;28;20228;-52
2022/11/29 08:39:16;;;;;;;37.00;19.80;;;;;;;;;;5042090;28;20322;-53
2022/11/29 08:41:44;;;;;;;35.20;20.60;;;;;;;;;;5016071;28;20241;-49
2022/11/29 08:44:10;;;;;;;30.10;17.67;;;;;;;;;;5015332;28;20320;-47
2022/11/29 08:49:23;;;;;;;28.40;15.77;;;;;;;;;;5016089;28;20531;-49
2022/11/29 08:51:52;;;;;;;25.60;15.53;;;;;;;;;;5014820;28;20233;-46
2022/11/29 08:54:18;;;;;;;27.03;14.20;;;;;;;;;;5015360;28;20282;-47
2022/11/29 08:56:45;;;;;;;22.93;13.50;;;;;;;;;;5015219;28;20229;-50
2022/11/29 08:59:32;;;;;;;23.90;15.70;;;;;;;;;;5015197;28;20225;-47
2022/11/29 09:01:59;;;;;;;26.17;14.70;;;;;;;;;;5015346;28;20686;-46
2022/11/29 09:04:26;;;;;;;22.40;13.13;;;;;;;;;;5015278;28;20681;-49
2022/11/29 09:06:53;;;;;;;24.93;13.27;;;;;;;;;;5030288;28;20320;-48
2022/11/29 09:09:20;;;;;;;20.63;11.03;;;;;;;;;;5014168;28;20225;-49
2022/11/29 09:11:47;;;;;;;31.03;14.27;;;;;;;;;;5013308;28;20252;-51
2022/11/29 09:14:16;;;;;;;19.93;12.00;;;;;;;;;;5015020;28;20260;-47
2022/11/29 09:16:43;;;;;;;28.00;14.90;;;;;;;;;;5014963;28;20228;-48
2022/11/29 09:19:12;;;;;;;21.43;12.13;;;;;;;;;;5014997;28;20221;-46
2022/11/29 09:21:39;;;;;;;24.33;13.23;;;;;;;;;;5013068;28;20701;-46
2022/11/29 09:24:08;;;;;;;24.37;13.07;;;;;;;;;;5013573;28;20606;-47
2022/11/29 09:26:36;;;;;;;29.63;15.07;;;;;;;;;;5013231;28;20237;-48
2022/11/29 09:29:05;;;;;;;30.77;15.90;;;;;;;;;;5031957;28;20220;-47
2022/11/29 09:31:33;;;;;;;26.90;14.57;;;;;;;;;;5033902;28;20665;-46
2022/11/29 09:34:00;;;;;;;40.17;15.43;;;;;;;;;;5034089;28;20220;-46
2022/11/29 09:36:28;;;;;;;49.27;18.37;;;;;;;;;;5034767;28;20232;-46
2022/11/29 09:38:56;;;;;;;27.40;13.73;;;;;;;;;;5034837;28;20279;-46
2022/11/29 09:41:46;;;;;;;28.20;13.77;;;;;;;;;;5034312;28;20279;-47
2022/11/29 09:44:31;;;;;;;39.03;16.80;;;;;;;;;;5033352;28;20240;-47
2022/11/29 09:47:16;;;;;;;21.10;11.20;;;;;;;;;;5034504;28;20262;-47
2022/11/29 09:49:54;;;;;;;26.13;13.00;;;;;;;;;;5034361;28;20240;-47
2022/11/29 09:52:42;;;;;;;28.23;13.50;;;;;;;;;;5034556;28;20220;-47
2022/11/29 09:55:30;;;;;;;21.10;11.83;;;;;;;;;;5034240;28;20216;-46
2022/11/29 09:57:58;;;;;;;35.63;26.23;;;;;;;;;;5033579;28;20679;-46
2022/11/29 10:00:27;;;;;;;22.33;12.57;;;;;;;;;;5033705;28;20224;-46
2022/11/29 10:02:59;;;;;;;21.60;11.77;;;;;;;;;;5033404;28;20225;-45
2022/11/29 10:05:30;;;;;;;25.50;13.00;;;;;;;;;;5033429;28;20228;-46
2022/11/29 10:08:05;;;;;;;28.03;12.53;;;;;;;;;;5034261;28;20255;-46
2022/11/29 10:10:45;;;;;;;29.63;13.47;;;;;;;;;;5034244;28;20669;-45
2022/11/29 10:13:33;;;;;;;26.07;12.87;;;;;;;;;;5033875;28;20290;-47
2022/11/29 10:16:27;;;;;;;25.70;12.13;;;;;;;;;;5033220;28;20286;-46
2022/11/29 10:19:01;;;;;;;18.07;10.23;;;;;;;;;;5026892;28;20320;-46
2022/11/29 10:21:34;;;;;;;22.37;11.27;;;;;;;;;;5033813;28;20251;-45
2022/11/29 10:24:04;;;;;;;25.77;12.40;;;;;;;;;;5033778;28;20320;-48
2022/11/29 10:26:31;;;;;;;30.10;17.07;;;;;;;;;;5033356;28;20229;-46
2022/11/29 10:29:01;;;;;;;32.13;17.80;;;;;;;;;;5033719;28;20286;-48
2022/11/29 10:31:34;;;;;;;23.30;14.47;;;;;;;;;;5034135;28;20247;-46
2022/11/29 10:34:06;;;;;;;23.47;13.10;;;;;;;;;;5033707;28;20221;-46
2022/11/29 10:36:46;;;;;;;27.63;13.17;;;;;;;;;;5033072;28;20228;-46
2022/11/29 10:39:19;;;;;;;24.73;12.50;;;;;;;;;;5033239;28;20243;-47
2022/11/29 10:41:51;;;;;;;22.77;11.97;;;;;;;;;;5033737;28;20575;-47
2022/11/29 10:44:19;;;;;;;23.57;13.33;;;;;;;;;;5033036;28;20227;-47
2022/11/29 10:46:46;;;;;;;26.20;12.63;;;;;;;;;;5033100;28;20236;-49
2022/11/29 10:49:15;;;;;;;20.67;11.40;;;;;;;;;;5032860;28;20261;-46
2022/11/29 10:51:42;;;;;;;21.30;11.60;;;;;;;;;;5033893;28;20302;-51
2022/11/29 10:54:31;;;;;;;31.20;13.77;;;;;;;;;;5036477;28;20286;-46
2022/11/29 10:56:59;;;;;;;56.10;25.97;;;;;;;;;;5036725;28;20236;-47
2022/11/29 10:59:28;;;;;;;40.27;30.63;;;;;;;;;;5037099;28;20270;-46
2022/11/29 11:01:56;;;;;;;32.90;18.13;;;;;;;;;;5037513;28;20231;-47
2022/11/29 11:04:31;;;;;;;37.87;16.40;;;;;;;;;;5036524;28;20290;-46
2022/11/29 11:07:01;;;;;;;40.60;18.53;;;;;;;;;;5037180;28;20239;-47
2022/11/29 11:09:34;;;;;;;83.57;41.00;;;;;;;;;;5037265;28;20229;-46
2022/11/29 11:12:05;;;;;;;56.27;26.47;;;;;;;;;;5036156;28;20216;-47
2022/11/29 11:14:36;;;;;;;63.90;30.03;;;;;;;;;;5037301;28;20225;-51
2022/11/29 11:17:14;;;;;;;67.67;35.73;;;;;;;;;;5036368;28;20290;-47
2022/11/29 11:19:41;;;;;;;44.67;22.23;;;;;;;;;;5037139;28;20229;-47
2022/11/29 11:22:18;;;;;;;44.97;21.57;;;;;;;;;;5037478;28;20299;-46
2022/11/29 11:24:45;;;;;;;37.17;16.93;;;;;;;;;;5036180;28;20695;-48
2022/11/29 11:27:13;;;;;;;59.67;36.97;;;;;;;;;;5036909;28;20232;-47
2022/11/29 11:29:41;;;;;;;28.63;17.50;;;;;;;;;;5036450;28;20232;-47
2022/11/29 11:32:17;;;;;;;41.83;19.60;;;;;;;;;;5036068;28;20239;-46
2022/11/29 11:34:57;;;;;;;101.83;36.37;;;;;;;;;;5037222;28;20237;-53
2022/11/29 11:37:30;;;;;;;129.47;47.53;;;;;;;;;;5037179;28;20239;-46
2022/11/29 11:40:19;;;;;;;119.37;49.20;;;;;;;;;;5036949;28;20231;-47
2022/11/29 11:42:46;;;;;;;79.20;36.27;;;;;;;;;;5036179;28;20229;-47
2022/11/29 11:45:13;;;;;;;78.93;34.63;;;;;;;;;;5035506;28;20278;-47
2022/11/29 11:47:49;;;;;;;59.00;24.87;;;;;;;;;;5037515;28;20247;-46
2022/11/29 11:50:42;;;;;;;52.73;21.00;;;;;;;;;;5036947;28;20220;-48
2022/11/29 11:53:30;;;;;;;48.17;19.03;;;;;;;;;;5036608;28;20251;-46
2022/11/29 11:56:01;;;;;;;75.37;44.23;;;;;;;;;;5036493;28;20225;-47
2022/11/29 11:58:33;;;;;;;62.43;47.20;;;;;;;;;;5036751;28;20228;-46
2022/11/29 12:01:13;;;;;;;62.13;31.73;;;;;;;;;;5036150;28;20263;-46
2022/11/29 12:04:05;;;;;;;76.70;29.13;;;;;;;;;;5036139;28;20220;-46
2022/11/29 12:06:45;;;;;;;58.17;21.63;;;;;;;;;;5036394;28;20221;-46
2022/11/29 12:09:23;;;;;;;43.47;21.83;;;;;;;;;;5035536;28;20225;-46
2022/11/29 12:12:20;;;;;;;40.00;17.83;;;;;;;;;;5034918;28;20232;-47
2022/11/29 12:15:09;;;;;;;35.90;15.57;;;;;;;;;;5029269;28;20296;-47
2022/11/29 12:17:39;;;;;;;37.10;17.77;;;;;;;;;;5035146;28;20221;-46
2022/11/29 12:20:33;;;;;;;39.20;17.43;;;;;;;;;;5035953;28;20228;-46
2022/11/29 12:23:12;;;;;;;25.93;13.23;;;;;;;;;;5015076;28;20232;-45
2022/11/29 12:25:46;;;;;;;57.90;23.83;;;;;;;;;;5035862;28;20231;-46
2022/11/29 12:28:15;;;;;;;50.43;26.50;;;;;;;;;;5035029;28;20228;-46
2022/11/29 12:30:56;;;;;;;45.13;29.27;;;;;;;;;;5035733;28;20236;-50
2022/11/29 12:33:49;;;;;;;60.37;24.00;;;;;;;;;;5034995;28;20224;-45
2022/11/29 12:36:41;;;;;;;100.23;29.40;;;;;;;;;;5034949;28;20221;-46
2022/11/29 12:39:17;;;;;;;53.63;21.27;;;;;;;;;;5035648;28;20274;-47
2022/11/29 12:41:53;;;;;;;41.27;18.83;;;;;;;;;;5035343;28;20274;-46
2022/11/29 12:44:44;;;;;;;63.37;23.37;;;;;;;;;;5035177;28;20657;-46
2022/11/29 12:47:35;;;;;;;46.50;21.30;;;;;;;;;;5035470;28;20240;-46
2022/11/29 12:50:49;;;;;;;41.07;18.93;;;;;;;;;;5035294;28;20228;-45
2022/11/29 12:53:45;;;;;;;42.87;19.60;;;;;;;;;;5034438;28;20228;-45
2022/11/29 12:56:57;;;;;;;60.80;31.20;;;;;;;;;;5030725;28;20727;-46
2022/11/29 12:59:38;;;;;;;29.07;21.33;;;;;;;;;;5019684;28;20225;-46
2022/11/29 13:02:23;;;;;;;109.23;42.03;;;;;;;;;;5034553;28;20271;-45
2022/11/29 13:05:08;;;;;;;46.93;19.50;;;;;;;;;;5034370;28;20610;-46
2022/11/29 13:07:50;;;;;;;46.40;18.70;;;;;;;;;;5034956;28;20677;-45
2022/11/29 13:10:29;;;;;;;49.47;20.57;;;;;;;;;;5034991;28;20239;-46
2022/11/29 13:13:14;;;;;;;35.20;17.13;;;;;;;;;;5034651;28;20239;-45
2022/11/29 13:16:00;;;;;;;42.17;17.33;;;;;;;;;;5033862;28;20231;-46
2022/11/29 13:18:42;;;;;;;33.30;16.33;;;;;;;;;;5035136;28;20252;-45
2022/11/29 13:21:36;;;;;;;57.30;20.10;;;;;;;;;;5034798;28;20247;-45
2022/11/29 13:24:10;;;;;;;33.07;14.80;;;;;;;;;;5033124;28;20311;-46
2022/11/29 13:26:39;;;;;;;60.50;29.87;;;;;;;;;;5034533;28;20227;-45
2022/11/29 13:29:08;;;;;;;27.37;17.60;;;;;;;;;;5033490;28;20223;-46
2022/11/29 13:31:37;;;;;;;36.83;18.33;;;;;;;;;;5033851;28;20254;-45
2022/11/29 13:34:13;;;;;;;27.97;14.73;;;;;;;;;;5034724;28;20248;-46
2022/11/29 13:36:56;;;;;;;45.63;17.83;;;;;;;;;;5034903;28;20223;-47
2022/11/29 13:39:36;;;;;;;36.20;16.07;;;;;;;;;;5034784;28;20228;-46
2022/11/29 13:42:14;;;;;;;33.53;14.47;;;;;;;;;;5033935;28;20221;-45
2022/11/29 13:45:06;;;;;;;23.33;12.33;;;;;;;;;;5034745;28;20224;-46
2022/11/29 13:47:47;;;;;;;37.30;17.17;;;;;;;;;;5033741;28;20297;-46
2022/11/29 13:50:42;;;;;;;48.00;17.70;;;;;;;;;;5034574;28;20224;-45
2022/11/29 13:53:20;;;;;;;39.47;17.20;;;;;;;;;;5033880;28;20432;-46
2022/11/29 13:55:58;;;;;;;39.60;23.43;;;;;;;;;;5033017;28;20259;-54
2022/11/29 13:58:38;;;;;;;187.00;130.57;;;;;;;;;;5034649;28;20311;-45
2022/11/29 14:01:07;;;;;;;76.57;33.67;;;;;;;;;;5014664;28;20320;-46
2022/11/29 14:03:44;;;;;;;48.23;22.67;;;;;;;;;;5014587;28;20225;-46
2022/11/29 14:06:13;;;;;;;56.30;20.27;;;;;;;;;;5013605;28;20229;-46
2022/11/29 14:08:56;;;;;;;53.87;21.97;;;;;;;;;;5013705;28;20677;-46
2022/11/29 14:12:17;;;;;;;67.83;28.57;;;;;;;;;;5014066;28;20225;-51
2022/11/29 14:14:53;;;;;;;46.00;20.80;;;;;;;;;;5013436;28;20220;-48
2022/11/29 14:17:45;;;;;;;44.57;19.53;;;;;;;;;;5013513;28;20237;-45
2022/11/29 14:20:22;;;;;;;46.70;20.10;;;;;;;;;;5014212;28;20704;-45
2022/11/29 14:23:04;;;;;;;82.53;33.53;;;;;;;;;;5014029;28;20319;-46
2022/11/29 14:25:36;;;;;;;90.53;36.97;;;;;;;;;;5013239;28;20229;-45
2022/11/29 14:28:22;;;;;;;87.10;31.93;;;;;;;;;;5017167;28;20244;-46
2022/11/29 14:30:50;;;;;;;191.60;73.50;;;;;;;;;;5034996;28;20239;-50
2022/11/29 14:33:28;;;;;;;96.37;42.37;;;;;;;;;;5038080;28;20221;-45
2022/11/29 14:36:01;;;;;;;111.33;38.77;;;;;;;;;;5037079;28;20228;-46
2022/11/29 14:38:38;;;;;;;135.50;37.57;;;;;;;;;;5038008;28;20224;-45
2022/11/29 14:41:25;;;;;;;126.00;38.40;;;;;;;;;;5036382;28;20561;-46
2022/11/29 14:44:04;;;;;;;59.00;22.97;;;;;;;;;;5037159;28;20220;-45
2022/11/29 14:46:32;;;;;;;145.27;44.33;;;;;;;;;;5034302;28;20673;-45
2022/11/29 14:49:01;;;;;;;39.93;19.07;;;;;;;;;;5036867;28;20298;-46
2022/11/29 14:51:32;;;;;;;41.67;19.60;;;;;;;;;;5036921;28;20220;-46
2022/11/29 14:54:14;;;;;;;75.63;44.23;;;;;;;;;;5037277;28;20324;-47
2022/11/29 14:56:43;;;;;;;42.03;18.97;;;;;;;;;;5027900;28;20220;-47
2022/11/29 14:59:41;;;;;;;124.90;62.67;;;;;;;;;;5037010;28;20216;-44
2022/11/29 15:02:36;;;;;;;57.10;35.67;;;;;;;;;;5037364;28;20228;-44
2022/11/29 15:05:17;;;;;;;71.60;29.27;;;;;;;;;;5029177;28;20609;-45
2022/11/29 15:07:55;;;;;;;112.93;33.40;;;;;;;;;;5020241;28;20229;-47
2022/11/29 15:10:26;;;;;;;93.03;32.73;;;;;;;;;;5026995;28;20248;-46
2022/11/29 15:12:53;;;;;;;61.97;23.37;;;;;;;;;;5036006;28;20225;-51
2022/11/29 15:15:30;;;;;;;49.70;21.83;;;;;;;;;;5033466;28;20224;-48
2022/11/29 15:18:29;;;;;;;46.37;20.67;;;;;;;;;;5027146;28;20244;-45